createdAt,value
2024-01-16T00:01:10.052Z,-0.70
2024-01-16T00:03:38.058Z,-0.65
2024-01-16T00:06:08.090Z,-0.61
2024-01-16T00:08:39.696Z,-0.61
2024-01-16T00:11:06.384Z,-0.67
2024-01-16T00:13:38.879Z,-0.72
2024-01-16T00:16:08.290Z,-0.73
2024-01-16T00:18:37.761Z,-0.76
2024-01-16T00:21:09.094Z,-0.77
2024-01-16T00:23:38.090Z,-0.71
2024-01-16T00:26:04.725Z,-0.66
2024-01-16T00:28:36.150Z,-0.60
2024-01-16T00:31:10.033Z,-0.57
2024-01-16T00:33:39.074Z,-0.52
2024-01-16T00:36:06.033Z,-0.52
2024-01-16T00:38:36.153Z,-0.52
2024-01-16T00:41:05.151Z,-0.56
2024-01-16T00:43:36.209Z,-0.56
2024-01-16T00:46:05.132Z,-0.58
2024-01-16T00:48:31.702Z,-0.58
2024-01-16T00:50:58.265Z,-0.64
2024-01-16T00:53:24.830Z,-0.70
2024-01-16T00:55:53.208Z,-0.76
2024-01-16T00:58:19.703Z,-0.82
2024-01-16T01:00:46.380Z,-0.87
2024-01-16T01:03:12.943Z,-0.85
2024-01-16T01:05:39.971Z,-0.89
2024-01-16T01:08:07.098Z,-0.93
2024-01-16T01:10:35.898Z,-0.97
2024-01-16T01:13:02.481Z,-0.98
2024-01-16T01:15:29.059Z,-1.00
2024-01-16T01:17:55.874Z,-1.02
2024-01-16T01:20:27.641Z,-1.04
2024-01-16T01:22:54.376Z,-1.07
2024-01-16T01:25:23.251Z,-1.06
2024-01-16T01:27:54.673Z,-1.07
2024-01-16T01:30:21.149Z,-1.09
2024-01-16T01:32:47.734Z,-1.11
2024-01-16T01:35:18.655Z,-1.14
2024-01-16T01:37:47.338Z,-1.14
2024-01-16T01:40:17.001Z,-1.15
2024-01-16T01:42:43.848Z,-1.21
2024-01-16T01:45:13.420Z,-1.20
2024-01-16T01:47:43.411Z,-1.19
2024-01-16T01:50:14.799Z,-1.19
2024-01-16T01:52:44.361Z,-1.20
2024-01-16T01:55:13.286Z,-1.13
2024-01-16T01:57:41.013Z,-1.07
2024-01-16T02:00:08.023Z,-0.99
2024-01-16T02:02:36.829Z,-0.95
2024-01-16T02:05:05.767Z,-0.89
2024-01-16T02:07:34.085Z,-0.80
2024-01-16T02:10:03.772Z,-0.71
2024-01-16T02:12:33.195Z,-0.65
2024-01-16T02:14:59.710Z,-0.59
2024-01-16T02:17:28.529Z,-0.51
2024-01-16T02:19:57.625Z,-0.44
2024-01-16T02:22:30.065Z,-0.39
2024-01-16T02:24:57.766Z,-0.38
2024-01-16T02:27:24.260Z,-0.36
2024-01-16T02:29:51.128Z,-0.33
2024-01-16T02:32:17.841Z,-0.31
2024-01-16T02:34:44.834Z,-0.31
2024-01-16T02:37:11.581Z,-0.33
2024-01-16T02:39:42.710Z,-0.37
2024-01-16T02:42:11.778Z,-0.42
2024-01-16T02:44:40.578Z,-0.44
2024-01-16T02:47:12.123Z,-0.46
2024-01-16T02:49:38.761Z,-0.47
2024-01-16T02:52:07.829Z,-0.48
2024-01-16T02:54:34.341Z,-0.46
2024-01-16T02:57:03.681Z,-0.46
2024-01-16T02:59:32.829Z,-0.45
2024-01-16T03:02:02.465Z,-0.45
2024-01-16T03:04:29.306Z,-0.45
2024-01-16T03:06:56.223Z,-0.46
2024-01-16T03:09:23.202Z,-0.45
2024-01-16T03:11:52.249Z,-0.45
2024-01-16T03:14:21.258Z,-0.45
2024-01-16T03:16:49.851Z,-0.44
2024-01-16T03:19:16.904Z,-0.42
2024-01-16T03:21:46.473Z,-0.40
2024-01-16T03:24:15.649Z,-0.37
2024-01-16T03:26:44.648Z,-0.36
2024-01-16T03:29:11.635Z,-0.33
2024-01-16T03:31:40.409Z,-0.30
2024-01-16T03:34:11.994Z,-0.27
2024-01-16T03:36:38.982Z,-0.27
2024-01-16T03:39:10.045Z,-0.24
2024-01-16T03:41:36.751Z,-0.22
2024-01-16T03:44:05.729Z,-0.22
2024-01-16T03:46:32.200Z,-0.21
2024-01-16T03:48:58.792Z,-0.20
2024-01-16T03:51:25.363Z,-0.18
2024-01-16T03:53:54.131Z,-0.17
2024-01-16T03:56:24.109Z,-0.16
2024-01-16T03:58:50.605Z,-0.16
2024-01-16T04:01:19.817Z,-0.17
2024-01-16T04:03:52.240Z,-0.18
2024-01-16T04:06:19.350Z,-0.18
2024-01-16T04:08:46.801Z,-0.19
2024-01-16T04:11:14.601Z,-0.21
2024-01-16T04:13:41.749Z,-0.23
2024-01-16T04:16:13.215Z,-0.27
2024-01-16T04:18:41.633Z,-0.36
2024-01-16T04:21:08.068Z,-0.42
2024-01-16T04:23:36.845Z,-0.46
2024-01-16T04:26:05.925Z,-0.52
2024-01-16T04:28:34.599Z,-0.56
2024-01-16T04:31:02.686Z,-0.56
2024-01-16T04:33:31.832Z,-0.55
2024-01-16T04:35:58.559Z,-0.54
2024-01-16T04:38:27.293Z,-0.50
2024-01-16T04:40:53.832Z,-0.47
2024-01-16T04:43:20.345Z,-0.46
2024-01-16T04:45:49.369Z,-0.46
2024-01-16T04:48:15.925Z,-0.43
2024-01-16T04:50:42.652Z,-0.42
2024-01-16T04:53:11.580Z,-0.41
2024-01-16T04:55:38.241Z,-0.39
2024-01-16T04:58:05.078Z,-0.38
2024-01-16T05:00:31.634Z,-0.36
2024-01-16T05:02:59.099Z,-0.33
2024-01-16T05:05:28.794Z,-0.32
2024-01-16T05:08:04.111Z,-0.28
2024-01-16T05:10:31.629Z,-0.28
2024-01-16T05:12:58.161Z,-0.30
2024-01-16T05:15:27.409Z,-0.29
2024-01-16T05:17:56.486Z,-0.33
2024-01-16T05:20:23.941Z,-0.35
2024-01-16T05:22:52.858Z,-0.39
2024-01-16T05:25:19.560Z,-0.43
2024-01-16T05:27:46.090Z,-0.45
2024-01-16T05:30:18.278Z,-0.45
2024-01-16T05:32:47.462Z,-0.48
2024-01-16T05:35:16.850Z,-0.50
2024-01-16T05:37:43.505Z,-0.55
2024-01-16T05:40:10.686Z,-0.58
2024-01-16T05:42:37.213Z,-0.59
2024-01-16T05:45:04.182Z,-0.62
2024-01-16T05:47:33.582Z,-0.66
2024-01-16T05:50:00.538Z,-0.68
2024-01-16T05:52:31.996Z,-0.66
2024-01-16T05:55:00.846Z,-0.62
2024-01-16T05:57:32.715Z,-0.61
2024-01-16T06:00:04.156Z,-0.59
2024-01-16T06:02:30.946Z,-0.58
2024-01-16T06:05:00.004Z,-0.60
2024-01-16T06:07:26.888Z,-0.62
2024-01-16T06:09:53.389Z,-0.59
2024-01-16T06:12:19.904Z,-0.60
2024-01-16T06:14:46.503Z,-0.61
2024-01-16T06:17:13.092Z,-0.63
2024-01-16T06:19:40.046Z,-0.67
2024-01-16T06:22:12.373Z,-0.67
2024-01-16T06:24:38.860Z,-0.71
2024-01-16T06:27:07.550Z,-0.70
2024-01-16T06:29:36.723Z,-0.68
2024-01-16T06:32:05.870Z,-0.61
2024-01-16T06:34:34.953Z,-0.58
2024-01-16T06:37:01.550Z,-0.49
2024-01-16T06:39:30.866Z,-0.43
2024-01-16T06:41:59.568Z,-0.35
2024-01-16T06:44:28.453Z,-0.32
2024-01-16T06:46:57.396Z,-0.27
2024-01-16T06:49:24.083Z,-0.24
2024-01-16T06:51:53.140Z,-0.24
2024-01-16T06:54:21.365Z,-0.23
2024-01-16T06:56:50.128Z,-0.22
2024-01-16T06:59:20.739Z,-0.21
2024-01-16T07:01:50.046Z,-0.20
2024-01-16T07:04:16.806Z,-0.19
2024-01-16T07:06:45.913Z,-0.19
2024-01-16T07:09:14.789Z,-0.18
2024-01-16T07:11:43.831Z,-0.18
2024-01-16T07:14:11.474Z,-0.18
2024-01-16T07:16:38.487Z,-0.17
2024-01-16T07:19:05.105Z,-0.18
2024-01-16T07:21:34.880Z,-0.19
2024-01-16T07:24:03.977Z,-0.19
2024-01-16T07:26:31.355Z,-0.20
2024-01-16T07:28:58.496Z,-0.18
2024-01-16T07:31:25.108Z,-0.20
2024-01-16T07:33:52.020Z,-0.19
2024-01-16T07:36:18.927Z,-0.19
2024-01-16T07:38:50.459Z,-0.18
2024-01-16T07:41:17.005Z,-0.17
2024-01-16T07:43:44.899Z,-0.18
2024-01-16T07:46:17.783Z,-0.18
2024-01-16T07:48:47.028Z,-0.19
2024-01-16T07:51:16.170Z,-0.19
2024-01-16T07:53:45.037Z,-0.19
2024-01-16T07:56:16.170Z,-0.22
2024-01-16T07:58:42.712Z,-0.20
2024-01-16T08:01:09.278Z,-0.21
2024-01-16T08:03:35.854Z,-0.21
2024-01-16T08:06:02.588Z,-0.23
2024-01-16T08:10:57.118Z,-0.24
2024-01-16T08:13:25.983Z,-0.25
2024-01-16T08:15:57.357Z,-0.24
2024-01-16T08:18:23.976Z,-0.23
2024-01-16T08:20:53.097Z,-0.24
2024-01-16T08:23:22.377Z,-0.22
2024-01-16T08:25:52.761Z,-0.20
2024-01-16T08:28:22.727Z,-0.19
2024-01-16T08:30:50.152Z,-0.18
2024-01-16T08:33:17.196Z,-0.18
2024-01-16T08:35:43.930Z,-0.17
2024-01-16T08:38:10.495Z,-0.16
2024-01-16T08:40:37.226Z,-0.18
2024-01-16T08:43:06.166Z,-0.17
2024-01-16T08:45:37.487Z,-0.18
2024-01-16T08:48:10.789Z,-0.20
2024-01-16T08:50:42.274Z,-0.23
2024-01-16T08:53:13.595Z,-0.22
2024-01-16T08:55:40.165Z,-0.27
2024-01-16T08:58:08.749Z,-0.29
2024-01-16T09:00:35.295Z,-0.28
2024-01-16T09:03:05.197Z,-0.25
2024-01-16T09:05:32.173Z,-0.21
2024-01-16T09:08:01.527Z,-0.19
2024-01-16T09:10:28.081Z,-0.14
2024-01-16T09:12:54.586Z,-0.10
2024-01-16T09:15:23.200Z,-0.07
2024-01-16T09:17:52.263Z,-0.02
2024-01-16T09:20:21.132Z,-0.01
2024-01-16T09:22:52.219Z,0.01
2024-01-16T09:25:18.841Z,0.03
2024-01-16T09:27:47.813Z,0.05
2024-01-16T09:30:14.556Z,0.11
2024-01-16T09:32:41.176Z,0.25
2024-01-16T09:35:10.236Z,0.43
2024-01-16T09:37:41.602Z,0.61
2024-01-16T09:40:11.532Z,0.67
2024-01-16T09:42:38.099Z,0.70
2024-01-16T09:45:07.846Z,0.74
2024-01-16T09:47:35.654Z,0.85
2024-01-16T09:50:04.269Z,1.18
2024-01-16T09:52:31.197Z,1.73
2024-01-16T09:55:00.211Z,1.78
2024-01-16T09:57:29.900Z,1.87
2024-01-16T10:00:01.163Z,2.05
2024-01-16T10:02:30.795Z,2.14
2024-01-16T10:04:57.333Z,2.06
2024-01-16T10:07:29.054Z,2.02
2024-01-16T10:09:59.093Z,2.02
2024-01-16T10:12:27.872Z,2.29
2024-01-16T10:14:57.863Z,2.48
2024-01-16T10:17:37.310Z,2.71
2024-01-16T10:20:06.037Z,2.70
2024-01-16T10:22:35.338Z,2.68
2024-01-16T10:25:07.098Z,2.85
2024-01-16T10:27:36.748Z,2.88
2024-01-16T10:30:11.905Z,3.04
2024-01-16T10:32:48.266Z,3.06
2024-01-16T10:35:16.058Z,2.84
2024-01-16T10:37:49.158Z,2.89
2024-01-16T10:40:32.283Z,2.72
2024-01-16T10:43:01.278Z,2.61
2024-01-16T10:45:33.882Z,2.92
2024-01-16T10:48:08.379Z,2.88
2024-01-16T10:50:39.330Z,2.66
2024-01-16T10:53:08.346Z,2.50
2024-01-16T10:55:51.995Z,2.46
2024-01-16T10:58:26.472Z,2.26
2024-01-16T11:00:54.597Z,2.25
2024-01-16T11:03:27.443Z,2.28
2024-01-16T11:05:55.749Z,2.28
2024-01-16T11:08:30.290Z,2.31
2024-01-16T11:10:57.275Z,2.35
2024-01-16T11:13:24.839Z,2.30
2024-01-16T11:15:54.242Z,2.40
2024-01-16T11:18:21.590Z,2.53
2024-01-16T11:21:03.228Z,2.50
2024-01-16T11:23:36.688Z,2.83
2024-01-16T11:26:38.078Z,3.20
2024-01-16T11:29:32.155Z,3.40
2024-01-16T11:32:13.972Z,3.53
2024-01-16T11:34:52.170Z,3.56
2024-01-16T11:37:28.520Z,3.53
2024-01-16T11:40:25.868Z,3.40
2024-01-16T11:42:54.384Z,3.41
2024-01-16T11:45:32.975Z,3.51
2024-01-16T11:48:15.767Z,3.42
2024-01-16T11:50:43.703Z,3.51
2024-01-16T11:53:12.618Z,3.49
2024-01-16T11:55:54.420Z,3.42
2024-01-16T11:59:03.168Z,3.50
2024-01-16T12:01:33.376Z,3.57
2024-01-16T12:04:06.699Z,3.53
2024-01-16T12:06:35.013Z,3.53
2024-01-16T12:09:14.234Z,3.46
2024-01-16T12:11:43.850Z,3.29
2024-01-16T12:14:10.756Z,3.08
2024-01-16T12:16:38.059Z,2.91
2024-01-16T12:19:12.193Z,2.70
2024-01-16T12:21:46.557Z,2.60
2024-01-16T12:24:21.270Z,2.41
2024-01-16T12:26:47.860Z,2.29
2024-01-16T12:29:14.372Z,2.17
2024-01-16T12:31:41.083Z,2.04
2024-01-16T12:34:11.560Z,1.90
2024-01-16T12:36:40.822Z,1.82
2024-01-16T12:39:12.970Z,1.79
2024-01-16T12:41:46.852Z,2.03
2024-01-16T12:44:17.589Z,2.22
2024-01-16T12:47:03.138Z,2.15
2024-01-16T12:49:30.411Z,2.14
2024-01-16T12:52:19.901Z,2.19
2024-01-16T12:54:51.666Z,2.31
2024-01-16T12:57:20.867Z,2.60
2024-01-16T12:59:49.615Z,2.86
2024-01-16T13:02:24.170Z,2.79
2024-01-16T13:05:04.336Z,2.68
2024-01-16T13:07:36.257Z,2.47
2024-01-16T13:10:14.018Z,2.25
2024-01-16T13:12:40.825Z,2.14
2024-01-16T13:15:12.197Z,2.09
2024-01-16T13:17:38.900Z,2.00
2024-01-16T13:20:09.024Z,1.96
2024-01-16T13:22:43.412Z,1.97
2024-01-16T13:25:13.038Z,2.08
2024-01-16T13:27:41.859Z,2.23
2024-01-16T13:30:11.895Z,2.35
2024-01-16T13:32:40.873Z,2.30
2024-01-16T13:35:10.960Z,2.31
2024-01-16T13:37:42.143Z,2.13
2024-01-16T13:40:22.000Z,1.91
2024-01-16T13:42:49.763Z,1.77
2024-01-16T13:45:20.841Z,1.76
2024-01-16T13:47:47.682Z,1.88
2024-01-16T13:50:14.396Z,1.93
2024-01-16T13:52:43.109Z,1.98
2024-01-16T13:55:12.434Z,1.95
2024-01-16T13:57:41.584Z,1.98
2024-01-16T14:00:14.279Z,2.02
2024-01-16T14:02:47.330Z,2.10
2024-01-16T14:05:22.926Z,2.08
2024-01-16T14:07:51.961Z,1.98
2024-01-16T14:10:20.268Z,2.00
2024-01-16T14:12:48.891Z,1.97
2024-01-16T14:15:17.601Z,1.89
2024-01-16T14:17:48.535Z,1.87
2024-01-16T14:20:19.220Z,1.87
2024-01-16T14:22:45.856Z,1.79
2024-01-16T14:25:13.986Z,1.74
2024-01-16T14:27:47.412Z,1.67
2024-01-16T14:30:17.336Z,1.60
2024-01-16T14:32:45.603Z,1.55
2024-01-16T14:35:18.407Z,1.52
2024-01-16T14:37:46.238Z,1.44
2024-01-16T14:40:26.136Z,1.39
2024-01-16T14:43:00.106Z,1.38
2024-01-16T14:45:28.887Z,1.29
2024-01-16T14:47:58.017Z,1.24
2024-01-16T14:50:26.958Z,1.20
2024-01-16T14:52:53.720Z,1.19
2024-01-16T14:55:23.551Z,1.14
2024-01-16T14:57:53.770Z,1.10
2024-01-16T15:00:28.204Z,1.08
2024-01-16T15:02:55.616Z,1.03
2024-01-16T15:05:23.455Z,0.98
2024-01-16T15:07:52.994Z,0.98
2024-01-16T15:10:19.933Z,0.89
2024-01-16T15:12:47.358Z,0.85
2024-01-16T15:15:15.996Z,0.82
2024-01-16T15:17:44.318Z,0.77
2024-01-16T15:20:12.052Z,0.75
2024-01-16T15:22:49.800Z,0.75
2024-01-16T15:25:17.819Z,0.72
2024-01-16T15:27:46.128Z,0.67
2024-01-16T15:30:15.053Z,0.58
2024-01-16T15:32:42.324Z,0.51
2024-01-16T15:35:09.589Z,0.46
2024-01-16T15:37:38.332Z,0.45
2024-01-16T15:40:12.873Z,0.42
2024-01-16T15:42:42.731Z,0.37
2024-01-16T15:45:12.967Z,0.37
2024-01-16T15:47:44.368Z,0.34
2024-01-16T15:50:15.903Z,0.33
2024-01-16T15:52:42.530Z,0.33
2024-01-16T15:55:12.217Z,0.30
2024-01-16T15:57:39.793Z,0.24
2024-01-16T16:00:10.396Z,0.20
2024-01-16T16:02:39.989Z,0.19
2024-01-16T16:05:07.084Z,0.17
2024-01-16T16:07:33.944Z,0.19
2024-01-16T16:10:03.095Z,0.17
2024-01-16T16:12:32.159Z,0.18
2024-01-16T16:14:58.811Z,0.22
2024-01-16T16:17:27.844Z,0.30
2024-01-16T16:19:57.027Z,0.41
2024-01-16T16:22:26.202Z,0.40
2024-01-16T16:24:54.944Z,0.32
2024-01-16T16:27:26.688Z,0.26
2024-01-16T16:29:59.299Z,0.22
2024-01-16T16:32:26.230Z,0.20
2024-01-16T16:34:55.210Z,0.13
2024-01-16T16:37:26.592Z,0.13
2024-01-16T16:39:53.156Z,0.15
2024-01-16T16:42:21.112Z,0.07
2024-01-16T16:44:52.535Z,0.02
2024-01-16T16:47:21.406Z,-0.05
2024-01-16T16:49:52.852Z,-0.01
2024-01-16T16:52:19.367Z,-0.06
2024-01-16T16:54:49.528Z,-0.11
2024-01-16T16:57:18.577Z,-0.11
2024-01-16T16:59:50.051Z,-0.05
2024-01-16T17:02:16.658Z,0.02
2024-01-16T17:04:45.698Z,0.08
2024-01-16T17:07:14.895Z,0.02
2024-01-16T17:09:44.351Z,-0.01
2024-01-16T17:12:14.164Z,-0.06
2024-01-16T17:14:40.772Z,-0.09
2024-01-16T17:17:08.577Z,-0.08
2024-01-16T17:19:41.332Z,-0.05
2024-01-16T17:22:13.118Z,-0.05
2024-01-16T17:24:43.397Z,-0.04
2024-01-16T17:27:10.260Z,0.01
2024-01-16T17:29:39.813Z,-0.02
2024-01-16T17:32:06.705Z,0.05
2024-01-16T17:34:33.221Z,0.01
2024-01-16T17:36:59.778Z,-0.05
2024-01-16T17:39:31.353Z,-0.14
2024-01-16T17:41:58.052Z,-0.13
2024-01-16T17:44:24.718Z,-0.07
2024-01-16T17:46:53.681Z,-0.11
2024-01-16T17:49:23.174Z,-0.09
2024-01-16T17:51:55.601Z,-0.04
2024-01-16T17:54:22.100Z,-0.02
2024-01-16T17:56:48.947Z,0.03
2024-01-16T17:59:17.006Z,0.12
2024-01-16T18:01:47.774Z,0.19
2024-01-16T18:04:18.787Z,0.20
2024-01-16T18:06:50.899Z,0.19
2024-01-16T18:09:22.202Z,0.18
2024-01-16T18:12:03.575Z,0.19
2024-01-16T18:14:30.199Z,0.19
2024-01-16T18:17:02.272Z,0.19
2024-01-16T18:19:34.407Z,0.16
2024-01-16T18:22:03.412Z,0.16
2024-01-16T18:24:32.981Z,0.16
2024-01-16T18:27:00.160Z,0.19
2024-01-16T18:29:31.201Z,0.19
2024-01-16T18:32:02.202Z,0.20
2024-01-16T18:34:32.312Z,0.23
2024-01-16T18:36:59.885Z,0.25
2024-01-16T18:39:26.896Z,0.23
2024-01-16T18:41:53.659Z,0.23
2024-01-16T18:44:22.548Z,0.26
2024-01-16T18:46:51.541Z,0.25
2024-01-16T18:49:19.659Z,0.22
2024-01-16T18:51:48.292Z,0.20
2024-01-16T18:54:16.663Z,0.20
2024-01-16T18:56:44.189Z,0.19
2024-01-16T18:59:10.747Z,0.22
2024-01-16T19:01:38.221Z,0.22
2024-01-16T19:04:05.482Z,0.23
2024-01-16T19:06:32.080Z,0.26
2024-01-16T19:08:59.292Z,0.19
2024-01-16T19:11:25.941Z,0.15
2024-01-16T19:13:57.320Z,0.12
2024-01-16T19:16:26.086Z,-0.01
2024-01-16T19:18:58.850Z,-0.08
2024-01-16T19:21:28.046Z,-0.14
2024-01-16T19:23:56.962Z,-0.13
2024-01-16T19:26:23.458Z,-0.15
2024-01-16T19:28:52.455Z,-0.17
2024-01-16T19:31:23.776Z,-0.17
2024-01-16T19:33:51.074Z,-0.17
2024-01-16T19:36:18.273Z,-0.17
2024-01-16T19:38:47.874Z,-0.18
2024-01-16T19:41:15.070Z,-0.19
2024-01-16T19:43:41.702Z,-0.20
2024-01-16T19:46:10.522Z,-0.20
2024-01-16T19:48:40.333Z,-0.21
2024-01-16T19:51:08.396Z,-0.20
2024-01-16T19:53:39.113Z,-0.21
2024-01-16T19:56:08.276Z,-0.22
2024-01-16T19:58:39.051Z,-0.23
2024-01-16T20:01:05.696Z,-0.27
2024-01-16T20:03:34.251Z,-0.29
2024-01-16T20:06:00.985Z,-0.36
2024-01-16T20:08:30.134Z,-0.40
2024-01-16T20:11:00.509Z,-0.44
2024-01-16T20:13:29.498Z,-0.46
2024-01-16T20:15:56.148Z,-0.49
2024-01-16T20:18:28.272Z,-0.58
2024-01-16T20:21:01.923Z,-0.65
2024-01-16T20:23:29.490Z,-0.73
2024-01-16T20:25:56.125Z,-0.76
2024-01-16T20:28:22.878Z,-0.85
2024-01-16T20:30:49.513Z,-0.89
2024-01-16T20:33:18.465Z,-0.97
2024-01-16T20:35:45.085Z,-1.01
2024-01-16T20:38:11.642Z,-1.09
2024-01-16T20:40:39.817Z,-1.14
2024-01-16T20:43:06.670Z,-1.15
2024-01-16T20:45:33.333Z,-1.14
2024-01-16T20:48:02.276Z,-1.21
2024-01-16T20:50:31.717Z,-1.24
2024-01-16T20:52:58.221Z,-1.29
2024-01-16T20:55:27.237Z,-1.28
2024-01-16T20:57:58.780Z,-1.35
2024-01-16T21:00:35.020Z,-1.36
2024-01-16T21:03:08.622Z,-1.43
2024-01-16T21:05:35.628Z,-1.47
2024-01-16T21:08:04.844Z,-1.46
2024-01-16T21:10:34.097Z,-1.46
2024-01-16T21:13:00.641Z,-1.49
2024-01-16T21:15:29.516Z,-1.51
2024-01-16T21:17:58.398Z,-1.59
2024-01-16T21:20:25.677Z,-1.60
2024-01-16T21:22:54.488Z,-1.57
2024-01-16T21:25:23.740Z,-1.58
2024-01-16T21:27:50.377Z,-1.60
2024-01-16T21:30:17.287Z,-1.62
2024-01-16T21:32:44.085Z,-1.61
2024-01-16T21:35:17.873Z,-1.62
2024-01-16T21:37:44.382Z,-1.61
2024-01-16T21:40:12.291Z,-1.61
2024-01-16T21:42:38.887Z,-1.62
2024-01-16T21:45:06.729Z,-1.65
2024-01-16T21:47:35.734Z,-1.71
2024-01-16T21:50:06.784Z,-1.67
2024-01-16T21:52:36.992Z,-1.69
2024-01-16T21:55:06.184Z,-1.67
2024-01-16T21:57:34.202Z,-1.68
2024-01-16T22:00:03.823Z,-1.67
2024-01-16T22:02:30.447Z,-1.66
2024-01-16T22:04:59.464Z,-1.71
2024-01-16T22:07:31.358Z,-1.70
2024-01-16T22:10:00.157Z,-1.68
2024-01-16T22:12:29.104Z,-1.69
2024-01-16T22:14:57.033Z,-1.71
2024-01-16T22:17:24.205Z,-1.71
2024-01-16T22:19:53.680Z,-1.71
2024-01-16T22:22:25.670Z,-1.72
2024-01-16T22:24:52.213Z,-1.73
2024-01-16T22:27:21.134Z,-1.71
2024-01-16T22:29:52.423Z,-1.71
2024-01-16T22:32:19.620Z,-1.75
2024-01-16T22:34:50.900Z,-1.78
2024-01-16T22:37:18.999Z,-1.77
2024-01-16T22:39:45.502Z,-1.79
2024-01-16T22:42:12.162Z,-1.79
2024-01-16T22:44:43.745Z,-1.74
2024-01-16T22:47:13.730Z,-1.75
2024-01-16T22:49:40.606Z,-1.77
2024-01-16T22:52:09.457Z,-1.73
2024-01-16T22:54:36.211Z,-1.71
2024-01-16T22:57:07.747Z,-1.66
2024-01-16T22:59:39.691Z,-1.66
2024-01-16T23:02:08.865Z,-1.65
2024-01-16T23:04:37.992Z,-1.66
2024-01-16T23:07:07.237Z,-1.63
2024-01-16T23:09:36.238Z,-1.62
2024-01-16T23:12:02.955Z,-1.62
2024-01-16T23:14:29.588Z,-1.62
2024-01-16T23:16:58.583Z,-1.63
2024-01-16T23:19:25.216Z,-1.65
2024-01-16T23:21:54.274Z,-1.66
2024-01-16T23:24:23.252Z,-1.63
2024-01-16T23:26:49.948Z,-1.63
2024-01-16T23:29:19.061Z,-1.65
2024-01-16T23:31:46.201Z,-1.67
2024-01-16T23:34:12.912Z,-1.69
2024-01-16T23:36:42.142Z,-1.70
2024-01-16T23:39:11.894Z,-1.71
2024-01-16T23:41:38.976Z,-1.71
2024-01-16T23:44:05.547Z,-1.76
2024-01-16T23:46:35.761Z,-1.78
2024-01-16T23:49:07.185Z,-1.77
2024-01-16T23:51:33.810Z,-1.81
2024-01-16T23:54:03.953Z,-1.79
2024-01-16T23:56:30.703Z,-1.84
2024-01-16T23:58:57.381Z,-1.84
